Time;durP1;ratioP1;P1;durP2;ratioP2;P2;SDS_P1;SDS_P2;PMS_P1;PMS_P2;Temp;Humidity;BMP_temperature;BMP_pressure;BME280_temperature;BME280_humidity;BME280_pressure;Samples;Min_cycle;Max_cycle;Signal;HPM_P1;HPM_P2
2022/03/01 00:00:05;;;;;;;32.72;19.42;;;;;;;-1.43;83.79;96934.22;5030773;28;24486;-71
2022/03/01 00:02:32;;;;;;;25.02;16.05;;;;;;;-1.61;84.27;96928.22;5028075;28;24443;-71
2022/03/01 00:04:58;;;;;;;19.05;14.15;;;;;;;-1.75;85.04;96940.03;5030065;28;24451;-71
2022/03/01 00:07:25;;;;;;;18.77;13.57;;;;;;;-1.86;86.40;96944.22;5030258;28;24452;-71
2022/03/01 00:09:52;;;;;;;17.95;14.85;;;;;;;-1.93;86.97;96939.94;5030710;28;24981;-71
2022/03/01 00:12:19;;;;;;;17.48;14.38;;;;;;;-2.00;88.40;96939.09;5030987;28;24436;-71
2022/03/01 00:14:45;;;;;;;23.52;14.95;;;;;;;-2.00;87.91;96936.56;5030773;28;24435;-71
2022/03/01 00:17:12;;;;;;;17.77;14.45;;;;;;;-1.86;87.53;96941.69;5030386;28;24436;-71
2022/03/01 00:19:38;;;;;;;16.37;13.63;;;;;;;-1.84;87.19;96942.53;5030351;28;24440;-71
2022/03/01 00:22:05;;;;;;;15.25;12.32;;;;;;;-1.73;86.90;96933.28;5030804;28;24494;-71
2022/03/01 00:24:31;;;;;;;17.73;14.00;;;;;;;-1.62;84.88;96938.41;5030826;28;24439;-71
2022/03/01 00:26:59;;;;;;;19.65;15.00;;;;;;;-1.58;82.71;96947.72;5030226;28;24455;-71
2022/03/01 00:29:25;;;;;;;19.10;14.00;;;;;;;-1.72;84.47;96943.44;5030290;28;24836;-71
2022/03/01 00:31:52;;;;;;;16.88;14.43;;;;;;;-1.64;83.54;96943.47;5030273;28;24983;-71
2022/03/01 00:34:18;;;;;;;19.08;14.15;;;;;;;-1.73;83.98;96940.91;5030383;28;24494;-71
2022/03/01 00:36:45;;;;;;;19.90;14.48;;;;;;;-2.09;83.81;96944.94;5030266;28;24489;-71
2022/03/01 00:39:11;;;;;;;19.80;14.45;;;;;;;-2.22;85.77;96949.13;5030296;28;24435;-71
2022/03/01 00:41:38;;;;;;;16.67;13.13;;;;;;;-2.38;86.37;96942.22;5030426;28;24514;-71
2022/03/01 00:44:06;;;;;;;23.70;14.63;;;;;;;-2.42;87.36;96943.06;5030428;28;24536;-71
2022/03/01 00:46:33;;;;;;;18.38;12.98;;;;;;;-2.39;88.27;96943.09;5029876;28;24464;-71
2022/03/01 00:49:00;;;;;;;15.07;12.40;;;;;;;-2.28;87.66;96938.06;5029794;28;24972;-71
2022/03/01 00:51:27;;;;;;;17.40;12.20;;;;;;;-2.20;87.56;96939.81;5030710;28;24833;-71
2022/03/01 00:53:54;;;;;;;16.10;13.13;;;;;;;-2.25;86.53;96935.56;5030112;28;25012;-71
2022/03/01 00:56:21;;;;;;;14.98;12.50;;;;;;;-2.34;87.52;96938.88;5030053;28;24440;-70
2022/03/01 00:58:47;;;;;;;15.32;12.15;;;;;;;-2.39;86.86;96937.16;5030435;28;24450;-71
2022/03/01 01:01:15;;;;;;;13.30;11.27;;;;;;;-2.41;88.55;96928.69;5030265;28;24976;-71
2022/03/01 01:03:42;;;;;;;14.10;11.68;;;;;;;-2.47;89.26;96929.50;5030156;28;24486;-71
2022/03/01 01:06:08;;;;;;;13.65;11.20;;;;;;;-2.26;87.86;96923.72;5017408;28;24509;-71
2022/03/01 01:08:35;;;;;;;14.63;10.73;;;;;;;-2.23;87.58;96923.72;5029921;28;24475;-71
2022/03/01 01:11:01;;;;;;;17.08;11.10;;;;;;;-2.30;87.89;96925.41;5030236;28;24432;-71
2022/03/01 01:13:29;;;;;;;16.52;10.85;;;;;;;-2.33;87.22;96927.06;5029825;28;24490;-70
2022/03/01 01:15:55;;;;;;;21.43;11.07;;;;;;;-2.45;87.03;96926.16;5032739;28;24435;-70
2022/03/01 01:18:23;;;;;;;12.20;10.25;;;;;;;-2.51;88.39;96922.72;5033748;28;24435;-70
2022/03/01 01:20:50;;;;;;;12.68;9.90;;;;;;;-2.47;88.28;96920.19;5033755;28;24439;-71
2022/03/01 01:23:16;;;;;;;18.52;12.05;;;;;;;-2.53;88.26;96914.22;5033973;28;24841;-71
2022/03/01 01:25:43;;;;;;;17.27;12.82;;;;;;;-2.62;88.88;96919.25;5033865;28;24447;-71
2022/03/01 01:28:09;;;;;;;17.13;12.43;;;;;;;-2.52;88.27;96932.03;5033249;28;24985;-71
2022/03/01 01:30:36;;;;;;;14.48;11.65;;;;;;;-2.50;88.34;96922.72;5033372;28;24435;-71
2022/03/01 01:33:03;;;;;;;15.90;12.05;;;;;;;-2.63;87.80;96925.16;5033753;28;24849;-70
2022/03/01 01:35:33;;;;;;;20.73;12.57;;;;;;;-2.78;89.50;96925.88;5033373;28;24489;-71
2022/03/01 01:38:00;;;;;;;15.60;12.70;;;;;;;-2.79;89.96;96925.03;5033044;28;24443;-71
2022/03/01 01:40:29;;;;;;;15.60;10.65;;;;;;;-2.72;90.26;96920.88;5033307;28;24524;-71
2022/03/01 01:42:56;;;;;;;14.35;9.27;;;;;;;-2.65;89.70;96909.94;5033317;28;24435;-71
2022/03/01 01:45:23;;;;;;;11.75;9.35;;;;;;;-2.70;89.53;96914.97;5032748;28;24848;-71
2022/03/01 01:47:51;;;;;;;9.63;8.63;;;;;;;-2.73;90.17;96907.34;5033153;28;25043;-71
2022/03/01 01:50:18;;;;;;;17.40;9.93;;;;;;;-2.86;89.69;96904.69;5033473;28;24856;-71
2022/03/01 01:52:48;;;;;;;10.57;9.48;;;;;;;-2.87;92.17;96905.53;5033280;28;24447;-71
2022/03/01 01:55:15;;;;;;;13.40;9.73;;;;;;;-3.01;91.99;96903.72;5033144;28;24435;-71
2022/03/01 01:57:42;;;;;;;10.73;8.77;;;;;;;-3.13;92.48;96900.25;5032227;28;24778;-71
2022/03/01 02:00:10;;;;;;;9.93;8.67;;;;;;;-3.26;94.63;96897.63;5033275;28;24530;-71
2022/03/01 02:02:38;;;;;;;11.98;8.68;;;;;;;-3.37;96.40;96905.94;5032790;28;24519;-71
2022/03/01 02:05:05;;;;;;;10.00;8.45;;;;;;;-3.44;97.97;96894.91;5032849;28;24436;-71
2022/03/01 02:07:32;;;;;;;11.18;8.85;;;;;;;-3.51;98.47;96899.06;5032409;28;24462;-71
2022/03/01 02:09:59;;;;;;;11.27;8.48;;;;;;;-3.25;97.44;96898.47;5032958;28;24431;-71
2022/03/01 02:12:26;;;;;;;9.82;7.78;;;;;;;-3.10;95.99;96903.66;5032950;28;24825;-71
2022/03/01 02:14:52;;;;;;;13.38;8.65;;;;;;;-3.01;93.53;96906.25;5032962;28;24439;-70
2022/03/01 02:17:20;;;;;;;12.75;8.10;;;;;;;-3.00;93.04;96905.44;5032168;28;24435;-70
2022/03/01 02:19:49;;;;;;;13.90;8.07;;;;;;;-3.06;94.53;96904.53;5032213;28;24976;-71
2022/03/01 02:22:18;;;;;;;10.80;8.25;;;;;;;-3.01;92.74;96902.88;5032630;28;24432;-70
2022/03/01 02:24:44;;;;;;;10.48;7.70;;;;;;;-2.98;93.52;96900.38;5017098;28;24490;-70
2022/03/01 02:27:11;;;;;;;10.32;8.40;;;;;;;-2.96;92.23;96897.03;5031692;28;24467;-70
2022/03/01 02:29:37;;;;;;;8.30;7.40;;;;;;;-2.98;91.75;96895.31;5032500;28;24531;-70
2022/03/01 02:32:06;;;;;;;10.60;8.53;;;;;;;-3.35;95.14;96895.00;5032646;28;24448;-70
2022/03/01 02:34:33;;;;;;;9.38;8.20;;;;;;;-3.21;95.61;96890.91;5032338;28;24458;-70
2022/03/01 02:37:00;;;;;;;9.85;7.45;;;;;;;-3.24;94.51;96887.50;5032544;28;24834;-70
2022/03/01 02:39:28;;;;;;;10.13;7.55;;;;;;;-3.17;93.87;96882.47;5032167;28;24435;-70
2022/03/01 02:41:55;;;;;;;9.50;7.82;;;;;;;-3.10;91.83;96885.09;5032519;28;24470;-70
2022/03/01 02:44:21;;;;;;;8.63;7.72;;;;;;;-3.01;90.68;96877.53;5032168;28;24846;-70
2022/03/01 02:46:48;;;;;;;10.88;8.73;;;;;;;-3.20;89.70;96885.00;5032238;28;24825;-70
2022/03/01 02:49:15;;;;;;;10.47;8.80;;;;;;;-3.24;90.77;96880.72;5031836;28;24436;-71
2022/03/01 02:51:42;;;;;;;12.15;8.98;;;;;;;-3.36;92.34;96884.84;5032086;28;24482;-71
2022/03/01 02:54:08;;;;;;;10.53;9.43;;;;;;;-3.38;93.63;96882.28;5031827;28;24523;-71
2022/03/01 02:56:38;;;;;;;11.48;9.30;;;;;;;-3.37;94.32;96883.13;5031565;28;25046;-71
2022/03/01 02:59:04;;;;;;;11.10;9.52;;;;;;;-3.36;93.10;96878.09;5031888;28;24517;-71
2022/03/01 03:01:31;;;;;;;10.23;8.67;;;;;;;-3.33;93.51;96884.88;5032105;28;24436;-71
2022/03/01 03:03:58;;;;;;;11.43;9.40;;;;;;;-3.32;92.41;96874.75;5031650;28;24436;-71
2022/03/01 03:06:25;;;;;;;10.10;8.73;;;;;;;-3.29;91.55;96881.53;5019965;28;24548;-71
2022/03/01 03:08:51;;;;;;;11.18;8.60;;;;;;;-3.32;91.15;96877.28;5031499;28;25036;-71
2022/03/01 03:11:18;;;;;;;10.13;7.87;;;;;;;-3.50;92.17;96875.44;5031640;28;24467;-71
2022/03/01 03:13:46;;;;;;;11.95;9.15;;;;;;;-3.43;92.45;96881.41;5031435;28;24432;-71
2022/03/01 03:16:12;;;;;;;13.48;9.77;;;;;;;-3.64;92.49;96871.91;5030991;28;24432;-71
2022/03/01 03:18:39;;;;;;;12.70;10.50;;;;;;;-3.81;95.99;96876.81;5031286;28;25032;-71
2022/03/01 03:21:06;;;;;;;11.15;8.82;;;;;;;-3.82;95.56;96877.66;5031593;28;24501;-71
2022/03/01 03:23:33;;;;;;;15.65;9.02;;;;;;;-3.64;95.35;96876.97;5031679;28;24431;-71
2022/03/01 03:26:00;;;;;;;9.70;8.70;;;;;;;-3.51;93.23;96877.97;5031407;28;24539;-71
2022/03/01 03:28:27;;;;;;;10.05;8.43;;;;;;;-3.51;93.82;96880.50;5031281;28;24443;-71
2022/03/01 03:30:55;;;;;;;10.32;8.52;;;;;;;-3.50;92.80;96885.56;5031175;28;24427;-71
2022/03/01 03:33:22;;;;;;;11.77;9.40;;;;;;;-3.87;94.66;96886.84;5031285;28;24435;-71
2022/03/01 03:35:48;;;;;;;13.00;9.13;;;;;;;-3.97;96.48;96879.97;5030798;28;24502;-71
2022/03/01 03:38:15;;;;;;;11.82;9.32;;;;;;;-3.82;97.18;96886.91;5030847;28;24457;-71
2022/03/01 03:40:41;;;;;;;12.23;8.82;;;;;;;-3.74;96.73;96881.09;5031703;28;24426;-71
2022/03/01 03:43:08;;;;;;;11.18;8.88;;;;;;;-3.67;96.10;96876.94;5031237;28;24908;-71
2022/03/01 03:45:34;;;;;;;9.77;8.65;;;;;;;-3.62;95.50;96871.94;5030567;28;24482;-71
2022/03/01 03:48:03;;;;;;;13.85;7.97;;;;;;;-3.65;94.62;96868.53;5030691;28;24824;-70
2022/03/01 03:50:29;;;;;;;11.57;8.88;;;;;;;-3.58;94.62;96864.38;5031150;28;24486;-70
2022/03/01 03:52:56;;;;;;;10.77;8.50;;;;;;;-3.64;92.33;96871.91;5031276;28;24494;-70
2022/03/01 03:55:22;;;;;;;12.48;8.32;;;;;;;-4.13;94.58;96872.22;5031017;28;24494;-70
2022/03/01 03:57:48;;;;;;;13.17;8.90;;;;;;;-4.33;97.03;96867.75;5031072;28;24435;-71
2022/03/01 04:00:17;;;;;;;11.38;9.00;;;;;;;-4.37;100.00;96869.41;5031104;28;24447;-71
2022/03/01 04:02:44;;;;;;;9.37;8.37;;;;;;;-4.18;98.75;96875.53;5030366;28;24470;-70
2022/03/01 04:05:13;;;;;;;11.50;8.25;;;;;;;-4.05;98.38;96867.25;5030854;28;24447;-70
2022/03/01 04:07:40;;;;;;;13.18;8.63;;;;;;;-3.85;95.44;96864.09;5014632;28;24925;-70
2022/03/01 04:10:07;;;;;;;10.90;8.60;;;;;;;-3.77;96.41;96870.94;5030728;28;24444;-70
2022/03/01 04:12:34;;;;;;;11.98;9.45;;;;;;;-3.89;98.99;96873.34;5030889;28;24447;-71
2022/03/01 04:15:00;;;;;;;11.75;8.70;;;;;;;-4.06;97.58;96867.22;5030663;28;24485;-71
2022/03/01 04:17:27;;;;;;;12.85;9.40;;;;;;;-4.19;98.71;96868.75;5030357;28;25052;-71
2022/03/01 04:19:53;;;;;;;13.68;9.10;;;;;;;-4.01;98.05;96868.97;5030602;28;24431;-71
2022/03/01 04:22:21;;;;;;;11.40;8.97;;;;;;;-3.94;97.76;96870.75;5030958;28;24435;-71
2022/03/01 04:24:48;;;;;;;15.15;10.48;;;;;;;-3.92;94.51;96874.16;5030730;28;24436;-71
2022/03/01 04:27:15;;;;;;;13.55;10.20;;;;;;;-3.99;93.67;96867.31;5030536;28;24518;-71
2022/03/01 04:29:41;;;;;;;15.85;10.27;;;;;;;-4.19;93.87;96864.56;5030646;28;25070;-71
2022/03/01 04:32:08;;;;;;;17.52;10.15;;;;;;;-4.09;94.34;96873.09;5030548;28;24435;-70
2022/03/01 04:34:35;;;;;;;14.63;10.48;;;;;;;-4.01;92.79;96860.53;5030236;28;24489;-71
2022/03/01 04:37:01;;;;;;;15.00;11.57;;;;;;;-3.99;90.99;96858.88;5030678;28;24424;-71
2022/03/01 04:39:29;;;;;;;17.23;10.63;;;;;;;-4.10;92.33;96863.81;5030272;28;24493;-71
2022/03/01 04:41:56;;;;;;;13.07;10.80;;;;;;;-4.55;93.23;96864.94;5030452;28;24876;-71
2022/03/01 04:44:23;;;;;;;11.35;9.52;;;;;;;-4.66;95.13;96867.31;5030264;28;25054;-70
2022/03/01 04:46:50;;;;;;;12.75;9.85;;;;;;;-4.55;95.77;96867.47;5030025;28;24559;-70
2022/03/01 04:49:16;;;;;;;12.18;8.85;;;;;;;-4.35;95.34;96866.88;5030703;28;24435;-70
2022/03/01 04:51:47;;;;;;;14.73;9.65;;;;;;;-4.22;95.13;96866.22;5036971;28;24423;-70
2022/03/01 04:54:13;;;;;;;13.60;9.02;;;;;;;-4.23;93.61;96867.84;5036540;28;24439;-70
2022/03/01 04:56:41;;;;;;;13.05;9.25;;;;;;;-4.16;94.40;96877.22;5035062;28;24501;-71
2022/03/01 04:59:09;;;;;;;12.05;9.48;;;;;;;-4.14;93.55;96870.53;5035642;28;24436;-71
2022/03/01 05:01:36;;;;;;;11.63;8.87;;;;;;;-4.12;94.50;96868.00;5036119;28;24448;-70
2022/03/01 05:04:03;;;;;;;12.43;9.50;;;;;;;-4.17;92.88;96865.41;5036280;28;24450;-70
2022/03/01 05:06:30;;;;;;;12.20;10.60;;;;;;;-4.21;93.15;96861.16;5036212;28;24501;-71
2022/03/01 05:08:56;;;;;;;11.50;9.80;;;;;;;-4.23;94.04;96859.44;5036244;28;24432;-70
2022/03/01 05:11:23;;;;;;;10.85;9.13;;;;;;;-4.23;95.24;96859.44;5036738;28;24473;-70
2022/03/01 05:13:51;;;;;;;14.13;10.02;;;;;;;-4.18;92.75;96853.59;5036995;28;24446;-70
2022/03/01 05:16:17;;;;;;;17.05;9.82;;;;;;;-4.20;93.69;96851.88;5036720;28;24485;-70
2022/03/01 05:18:44;;;;;;;10.73;9.63;;;;;;;-4.23;93.25;96854.38;5036442;28;24435;-70
2022/03/01 05:21:10;;;;;;;12.82;9.32;;;;;;;-4.18;93.10;96853.59;5036463;28;24442;-70
2022/03/01 05:23:37;;;;;;;10.25;8.48;;;;;;;-4.18;88.20;96845.19;5036319;28;24419;-70
2022/03/01 05:26:04;;;;;;;12.88;9.55;;;;;;;-4.40;90.40;96844.91;5036453;28;24419;-71
2022/03/01 05:28:31;;;;;;;11.02;9.57;;;;;;;-4.51;91.04;96848.13;5035418;28;25009;-70
2022/03/01 05:30:59;;;;;;;11.70;9.10;;;;;;;-4.82;92.82;96855.31;5036393;28;24447;-70
2022/03/01 05:33:25;;;;;;;12.07;9.63;;;;;;;-4.68;93.95;96848.72;5028156;28;24444;-69
2022/03/01 05:35:53;;;;;;;11.90;10.30;;;;;;;-4.76;94.37;96850.31;5031004;28;24439;-71
2022/03/01 05:38:20;;;;;;;13.23;10.43;;;;;;;-4.94;95.52;96852.56;5037463;28;24439;-70
2022/03/01 05:40:48;;;;;;;12.13;10.02;;;;;;;-5.05;100.00;96854.09;5028792;28;24436;-71
2022/03/01 05:43:14;;;;;;;12.85;10.23;;;;;;;-5.07;100.00;96853.22;5026473;28;24802;-70
2022/03/01 05:45:41;;;;;;;12.40;10.00;;;;;;;-4.93;100.00;96854.25;5022290;28;24989;-70
2022/03/01 05:48:09;;;;;;;10.57;8.82;;;;;;;-4.73;100.00;96854.56;5023218;28;24467;-71
2022/03/01 05:50:36;;;;;;;14.85;10.13;;;;;;;-4.64;100.00;96854.69;5026805;28;24848;-71
2022/03/01 05:53:03;;;;;;;17.27;10.65;;;;;;;-4.65;98.12;96853.00;5026287;28;24543;-71
2022/03/01 05:55:29;;;;;;;14.00;10.20;;;;;;;-4.75;97.57;96854.53;5023222;28;24841;-71
2022/03/01 05:57:57;;;;;;;12.90;10.60;;;;;;;-4.81;97.36;96851.09;5027774;28;24486;-70
2022/03/01 06:00:23;;;;;;;12.63;10.13;;;;;;;-4.74;97.31;96843.63;5035644;28;24440;-70
2022/03/01 06:02:51;;;;;;;15.70;10.32;;;;;;;-4.48;96.42;96851.56;5021974;28;24432;-71
2022/03/01 06:05:19;;;;;;;14.63;10.10;;;;;;;-4.62;96.43;96850.50;5021877;28;25656;-71
2022/03/01 06:07:46;;;;;;;12.52;9.88;;;;;;;-4.67;98.72;96854.66;5022654;28;24457;-72
2022/03/01 06:10:13;;;;;;;15.88;11.27;;;;;;;-4.62;97.72;96846.31;5021625;28;24439;-72
2022/03/01 06:12:40;;;;;;;14.13;10.80;;;;;;;-4.75;99.87;96858.75;5022286;28;24439;-73
2022/03/01 06:15:07;;;;;;;13.83;10.53;;;;;;;-4.78;99.54;96869.69;5021035;28;24468;-73
2022/03/01 06:17:34;;;;;;;11.85;9.90;;;;;;;-4.68;99.15;96861.38;5023993;28;24448;-72
2022/03/01 06:20:01;;;;;;;16.85;10.75;;;;;;;-4.72;96.81;96858.78;5022883;28;25041;-73
2022/03/01 06:22:29;;;;;;;12.20;10.88;;;;;;;-4.77;95.20;96865.47;5033380;28;24490;-72
2022/03/01 06:24:56;;;;;;;12.73;11.02;;;;;;;-4.71;96.54;96861.34;5022952;28;24439;-72
2022/03/01 06:27:22;;;;;;;12.40;9.88;;;;;;;-4.56;96.28;96867.44;5020837;28;24483;-73
2022/03/01 06:29:49;;;;;;;16.73;10.97;;;;;;;-4.27;93.89;96866.13;5023972;28;24432;-73
2022/03/01 06:32:15;;;;;;;21.95;11.73;;;;;;;-3.99;91.97;96862.25;5024943;28;24837;-72
2022/03/01 06:34:42;;;;;;;16.52;11.38;;;;;;;-3.86;92.23;96872.50;5026427;28;24435;-72
2022/03/01 06:37:13;;;;;;;21.83;11.38;;;;;;;-3.96;90.83;96872.41;5022252;28;24452;-71
2022/03/01 06:39:42;;;;;;;22.23;11.07;;;;;;;-4.36;93.78;96873.63;5026713;28;24810;-71
2022/03/01 06:42:08;;;;;;;13.35;10.48;;;;;;;-4.09;95.61;96873.09;5019418;28;24436;-71
2022/03/01 06:44:35;;;;;;;14.43;9.93;;;;;;;-3.89;94.78;96875.88;5027701;28;24440;-72
2022/03/01 06:47:02;;;;;;;12.57;10.00;;;;;;;-3.65;92.94;96875.28;5024901;28;24494;-71
2022/03/01 06:49:29;;;;;;;15.77;11.35;;;;;;;-3.61;91.40;96877.00;5022556;28;24445;-71
2022/03/01 06:51:55;;;;;;;15.05;11.07;;;;;;;-3.56;92.14;96879.56;5021286;28;24452;-71
2022/03/01 06:54:22;;;;;;;16.05;11.95;;;;;;;-3.41;91.76;96885.66;5022380;28;24992;-71
2022/03/01 06:56:50;;;;;;;13.63;11.23;;;;;;;-3.34;91.51;96891.59;5022371;28;24506;-70
2022/03/01 06:59:16;;;;;;;19.80;11.85;;;;;;;-3.27;91.22;96905.19;5022001;28;24450;-71
2022/03/01 07:01:43;;;;;;;18.02;10.90;;;;;;;-3.16;91.03;96906.97;5024969;28;24439;-71
2022/03/01 07:04:09;;;;;;;18.83;11.05;;;;;;;-3.03;89.01;96907.09;5020851;28;24448;-71
2022/03/01 07:06:36;;;;;;;13.48;10.63;;;;;;;-2.94;87.32;96909.69;5025108;28;24456;-71
2022/03/01 07:09:02;;;;;;;13.15;11.20;;;;;;;-2.94;88.61;96912.25;5019398;28;24448;-71
2022/03/01 07:11:29;;;;;;;14.23;11.07;;;;;;;-2.72;89.35;96923.41;5021444;28;24985;-71
2022/03/01 07:13:56;;;;;;;15.60;11.45;;;;;;;-2.46;89.27;96924.44;5021654;28;24502;-71
2022/03/01 07:16:23;;;;;;;15.38;10.55;;;;;;;-2.16;88.83;96917.00;5024110;28;24440;-70
2022/03/01 07:18:50;;;;;;;15.43;11.02;;;;;;;-1.90;88.48;96912.03;5020286;28;24544;-70
2022/03/01 07:21:16;;;;;;;18.27;11.13;;;;;;;-1.67;87.01;96918.03;5019107;28;24432;-71
2022/03/01 07:23:43;;;;;;;16.40;10.40;;;;;;;-1.43;85.39;96922.38;5020643;28;24491;-72
2022/03/01 07:26:09;;;;;;;15.52;11.32;;;;;;;-1.23;84.34;96930.03;5017251;28;24459;-73
2022/03/01 07:28:35;;;;;;;18.63;13.90;;;;;;;-0.85;84.24;96922.47;5023813;28;24448;-73
2022/03/01 07:31:03;;;;;;;25.08;12.63;;;;;;;-0.99;84.44;96914.81;5023096;28;24977;-72
2022/03/01 07:33:30;;;;;;;15.88;11.75;;;;;;;-1.02;85.80;96916.50;5020857;28;24475;-73
2022/03/01 07:35:57;;;;;;;27.67;12.77;;;;;;;-0.98;85.99;96919.03;5021898;28;24436;-73
2022/03/01 07:38:23;;;;;;;23.95;13.20;;;;;;;-1.01;86.14;96918.19;5020063;28;24432;-73
2022/03/01 07:40:50;;;;;;;24.35;13.20;;;;;;;-0.93;86.13;96919.03;5019036;28;24439;-73
2022/03/01 07:43:16;;;;;;;18.48;12.20;;;;;;;-1.24;83.75;96923.25;5029424;28;24440;-73
2022/03/01 07:45:43;;;;;;;21.70;12.18;;;;;;;-1.31;83.68;96932.56;5022736;28;24487;-71
2022/03/01 07:48:11;;;;;;;15.98;12.52;;;;;;;-1.54;84.63;96924.03;5019088;28;24526;-73
2022/03/01 07:50:37;;;;;;;16.98;11.43;;;;;;;-1.52;84.46;96922.31;5020881;28;24444;-72
2022/03/01 07:53:04;;;;;;;17.80;12.02;;;;;;;-1.44;84.05;96919.84;5022596;28;24446;-73
2022/03/01 07:55:31;;;;;;;18.92;11.23;;;;;;;-1.23;85.67;96923.25;5021598;28;24444;-72
2022/03/01 07:57:57;;;;;;;16.30;11.77;;;;;;;-1.26;82.01;96918.19;5018158;28;24943;-72
2022/03/01 08:00:24;;;;;;;19.88;12.57;;;;;;;-1.23;82.10;96922.41;5018278;28;24510;-72
2022/03/01 08:02:52;;;;;;;15.30;12.23;;;;;;;-1.33;81.08;96916.47;5021493;28;24896;-73
2022/03/01 08:05:20;;;;;;;18.10;12.32;;;;;;;-1.20;81.87;96916.47;5023692;28;24479;-72
2022/03/01 08:07:46;;;;;;;14.10;11.82;;;;;;;-1.12;81.44;96917.34;5018150;28;25024;-75
2022/03/01 08:10:13;;;;;;;15.38;11.35;;;;;;;-0.86;80.20;96918.19;5019451;28;24440;-73
2022/03/01 08:12:39;;;;;;;17.10;12.20;;;;;;;-0.49;79.50;96918.19;5022261;28;24510;-72
2022/03/01 08:15:06;;;;;;;18.15;11.52;;;;;;;-0.17;74.77;96914.75;5021888;28;24449;-72
2022/03/01 08:17:33;;;;;;;16.58;11.85;;;;;;;0.42;77.34;96909.44;5019300;28;24988;-73
2022/03/01 08:19:59;;;;;;;17.80;11.30;;;;;;;0.55;73.77;96912.75;5020751;28;24433;-73
2022/03/01 08:22:27;;;;;;;17.40;11.75;;;;;;;0.98;71.47;96907.41;5019263;28;25017;-72
2022/03/01 08:24:53;;;;;;;19.15;11.85;;;;;;;1.32;69.22;96908.00;5024751;28;24444;-73
2022/03/01 08:27:20;;;;;;;15.73;11.30;;;;;;;1.65;68.77;96896.63;5019204;28;24856;-73
2022/03/01 08:29:46;;;;;;;14.40;11.73;;;;;;;2.03;68.65;96897.09;5021856;28;24790;-72
2022/03/01 08:32:13;;;;;;;16.25;11.93;;;;;;;2.27;65.90;96895.97;5018379;28;25001;-73
2022/03/01 08:34:39;;;;;;;18.50;11.95;;;;;;;2.47;66.73;96901.69;5019711;28;25034;-73
2022/03/01 08:37:06;;;;;;;18.63;11.48;;;;;;;2.64;66.08;96902.31;5022186;28;24909;-73
2022/03/01 08:39:34;;;;;;;12.50;10.70;;;;;;;2.76;61.68;96897.88;5021047;28;24432;-73
2022/03/01 08:42:01;;;;;;;16.42;11.05;;;;;;;2.88;57.44;96895.16;5019551;28;24432;-73
2022/03/01 08:44:27;;;;;;;16.52;10.32;;;;;;;2.94;58.79;96900.19;5019896;28;24459;-73
2022/03/01 08:46:53;;;;;;;15.33;10.57;;;;;;;3.01;56.97;96891.56;5019703;28;24524;-72
2022/03/01 08:49:20;;;;;;;16.70;10.77;;;;;;;3.30;57.58;96895.34;5019666;28;24861;-73
2022/03/01 08:51:46;;;;;;;15.82;11.50;;;;;;;3.47;59.49;96879.72;5037764;23;24472;-73
2022/03/01 08:54:13;;;;;;;12.43;10.98;;;;;;;3.44;58.18;96883.16;5021011;28;24444;-73
2022/03/01 08:56:41;;;;;;;13.80;10.90;;;;;;;3.12;56.77;96893.94;5022429;28;24479;-75
2022/03/01 08:59:07;;;;;;;14.38;11.10;;;;;;;3.29;57.99;96883.44;5019873;28;24432;-70
2022/03/01 09:01:34;;;;;;;12.83;10.73;;;;;;;3.45;58.66;96881.44;5019843;28;24516;-71
2022/03/01 09:04:00;;;;;;;15.38;11.32;;;;;;;3.41;57.94;96888.34;5017626;28;24435;-71
2022/03/01 09:06:27;;;;;;;15.30;11.25;;;;;;;3.16;56.61;96890.47;5018143;28;24447;-71
2022/03/01 09:08:53;;;;;;;13.00;9.82;;;;;;;3.08;55.20;96882.91;5016183;28;25006;-71
2022/03/01 09:11:20;;;;;;;13.18;10.23;;;;;;;2.92;57.32;96895.06;5014403;28;24989;-72
2022/03/01 09:13:48;;;;;;;13.18;10.65;;;;;;;2.23;56.94;96881.56;5018852;28;24443;-71
2022/03/01 09:16:14;;;;;;;13.65;10.32;;;;;;;2.25;59.47;96890.03;5018455;28;24443;-72
2022/03/01 09:18:41;;;;;;;15.35;11.82;;;;;;;2.65;58.52;96888.66;5017663;28;24956;-71
2022/03/01 09:21:07;;;;;;;16.70;11.13;;;;;;;2.63;57.52;96879.28;5017221;28;25035;-71
2022/03/01 09:23:34;;;;;;;14.50;10.43;;;;;;;3.12;59.58;96881.16;5015988;28;24858;-71
2022/03/01 09:26:01;;;;;;;13.20;10.87;;;;;;;3.62;57.97;96880.28;5017953;28;25059;-71
2022/03/01 09:28:28;;;;;;;19.17;11.60;;;;;;;3.87;53.71;96867.88;5016341;28;24501;-70
2022/03/01 09:30:55;;;;;;;14.55;10.75;;;;;;;3.44;53.87;96870.38;5018805;28;24490;-71
2022/03/01 09:33:22;;;;;;;14.30;10.48;;;;;;;3.47;54.68;96874.59;5010513;28;24444;-72
2022/03/01 09:35:48;;;;;;;14.60;10.60;;;;;;;3.91;52.53;96866.09;5010039;28;24436;-71
2022/03/01 09:38:15;;;;;;;15.05;10.88;;;;;;;3.46;53.45;96873.75;5013799;28;24833;-71
2022/03/01 09:40:41;;;;;;;11.93;10.73;;;;;;;3.50;54.37;96860.03;5013835;28;24846;-71
2022/03/01 09:43:08;;;;;;;10.35;8.77;;;;;;;4.46;47.09;96857.31;5013564;28;24433;-70
2022/03/01 09:45:34;;;;;;;9.43;8.38;;;;;;;4.92;48.27;96850.31;5013003;28;24440;-71
2022/03/01 09:48:02;;;;;;;11.40;8.60;;;;;;;4.71;46.67;96861.88;5012620;28;24969;-71
2022/03/01 09:50:30;;;;;;;12.52;8.55;;;;;;;4.78;48.70;96864.31;5012969;28;24448;-71
2022/03/01 09:52:58;;;;;;;13.73;9.50;;;;;;;4.92;46.86;96868.28;5026064;28;24895;-71
2022/03/01 09:55:24;;;;;;;12.57;9.48;;;;;;;4.93;43.55;96868.25;5013492;28;24486;-71
2022/03/01 09:57:51;;;;;;;14.80;8.50;;;;;;;5.14;44.94;96864.31;5016256;28;24961;-71
2022/03/01 10:00:18;;;;;;;9.30;8.18;;;;;;;5.27;45.30;96865.72;5013099;28;24443;-71
2022/03/01 10:02:45;;;;;;;12.85;8.85;;;;;;;5.26;42.31;96866.59;5012496;28;25024;-72
2022/03/01 10:05:15;;;;;;;10.73;8.02;;;;;;;5.59;42.98;96874.34;5012929;28;24811;-73
2022/03/01 10:07:44;;;;;;;11.50;9.18;;;;;;;5.66;41.12;96875.88;5013217;28;24444;-72
2022/03/01 10:10:16;;;;;;;11.80;9.02;;;;;;;5.75;43.44;96867.09;5013380;28;24463;-73
2022/03/01 10:12:44;;;;;;;15.63;9.37;;;;;;;5.66;42.24;96864.75;5013319;28;24472;-72
2022/03/01 10:15:13;;;;;;;10.25;8.95;;;;;;;5.83;42.10;96860.03;5013048;28;24527;-72
2022/03/01 10:17:41;;;;;;;10.02;8.48;;;;;;;5.82;42.97;96855.75;5012915;28;24432;-72
2022/03/01 10:20:10;;;;;;;13.07;9.07;;;;;;;5.74;43.50;96848.25;5011985;28;25111;-72
2022/03/01 10:22:44;;;;;;;13.60;8.60;;;;;;;5.84;41.68;96851.44;5012128;28;24435;-72
2022/03/01 10:25:12;;;;;;;11.88;8.07;;;;;;;5.90;44.61;96847.88;5011742;28;24526;-71
2022/03/01 10:27:38;;;;;;;10.00;8.38;;;;;;;6.03;42.63;96859.50;5012603;28;24889;-71
2022/03/01 10:30:07;;;;;;;10.40;8.70;;;;;;;5.80;39.56;96849.81;5011675;28;24452;-71
2022/03/01 10:32:34;;;;;;;11.30;8.63;;;;;;;6.12;44.11;96860.97;5012541;28;24467;-71
2022/03/01 10:35:03;;;;;;;11.73;8.73;;;;;;;6.21;44.22;96859.00;5012216;28;24466;-71
2022/03/01 10:37:31;;;;;;;10.10;8.43;;;;;;;6.59;43.92;96857.03;5012571;28;25002;-71
2022/03/01 10:40:17;;;;;;;17.50;8.75;;;;;;;6.64;41.30;96856.94;5012327;28;24432;-71
2022/03/01 10:42:44;;;;;;;11.37;8.97;;;;;;;6.41;41.18;96855.00;5012550;28;25050;-71
2022/03/01 10:45:12;;;;;;;11.73;9.45;;;;;;;6.26;41.89;96856.28;5012915;28;24905;-71
2022/03/01 10:47:40;;;;;;;9.30;8.27;;;;;;;6.57;45.02;96853.69;5012108;28;24797;-71
2022/03/01 10:50:10;;;;;;;12.75;9.10;;;;;;;6.69;43.10;96855.06;5012438;28;24464;-70
2022/03/01 10:52:39;;;;;;;12.05;8.70;;;;;;;6.68;40.12;96855.94;5015182;28;24425;-70
2022/03/01 10:55:06;;;;;;;11.82;8.38;;;;;;;6.64;40.47;96859.50;5012229;28;24531;-71
2022/03/01 10:57:34;;;;;;;11.13;8.48;;;;;;;6.34;39.11;96862.09;5012515;28;25187;-70
2022/03/01 11:00:00;;;;;;;14.70;9.18;;;;;;;6.26;38.95;96859.69;5012568;28;24447;-70
2022/03/01 11:02:27;;;;;;;11.10;8.60;;;;;;;5.47;39.75;96854.09;5012477;28;24978;-70
2022/03/01 11:04:53;;;;;;;13.57;9.02;;;;;;;5.22;40.75;96853.88;5012205;28;24486;-70
2022/03/01 11:07:21;;;;;;;11.30;9.05;;;;;;;5.89;43.11;96853.88;5003844;28;24503;-70
2022/03/01 11:09:48;;;;;;;10.90;8.30;;;;;;;6.04;42.23;96849.19;5004623;28;24452;-71
2022/03/01 11:12:18;;;;;;;12.10;8.82;;;;;;;5.86;40.85;96852.25;5009284;28;24520;-71
2022/03/01 11:15:03;;;;;;;12.13;8.80;;;;;;;5.87;42.10;96845.38;5012130;28;25077;-71
2022/03/01 11:17:41;;;;;;;13.40;9.45;;;;;;;6.11;39.41;96841.28;5011842;28;24412;-71
2022/03/01 11:20:10;;;;;;;10.15;8.52;;;;;;;6.00;40.85;96836.44;5011866;28;24420;-71
2022/03/01 11:22:42;;;;;;;10.50;8.48;;;;;;;5.51;40.33;96837.72;5004307;28;24439;-72